createdAt,value
2022-09-07T07:20:26.154Z,100
2022-09-07T07:22:18.527Z,100
2022-09-07T07:23:49.275Z,100
2022-09-07T07:24:53.542Z,100
2022-09-07T07:26:00.199Z,100
2022-09-07T07:27:04.455Z,100
2022-09-07T07:30:14.825Z,100
2022-09-07T07:31:19.095Z,100
2022-09-07T07:32:26.022Z,100
2022-09-07T07:33:30.370Z,100
2022-09-07T07:34:35.469Z,100
2022-09-07T07:35:40.019Z,100
2022-09-07T07:36:44.218Z,100
2022-09-07T07:37:51.315Z,100
2022-09-07T07:40:30.804Z,100
2022-09-07T07:42:03.044Z,100
2022-09-07T07:43:09.318Z,100
2022-09-07T07:44:13.582Z,100
2022-09-07T07:45:57.875Z,100
2022-09-07T07:47:08.300Z,100
2022-09-07T07:48:12.450Z,100
2022-09-07T07:49:16.711Z,100
2022-09-07T07:50:36.414Z,100
2022-09-07T07:54:44.993Z,100
2022-09-07T07:55:49.267Z,100
2022-09-07T07:56:53.452Z,100
2022-09-07T07:57:57.750Z,100
2022-09-07T07:59:04.196Z,100
2022-09-07T08:00:08.451Z,100
2022-09-07T08:01:12.864Z,100
2022-09-07T08:02:17.682Z,100
2022-09-07T08:03:22.133Z,100
2022-09-07T08:04:29.077Z,100
2022-09-07T08:05:33.330Z,100
2022-09-07T08:06:37.677Z,100
2022-09-07T08:07:42.039Z,100
2022-09-07T08:08:46.298Z,100
2022-09-07T08:09:53.081Z,100
2022-09-07T08:10:57.353Z,100
2022-09-07T08:12:01.618Z,100
2022-09-07T08:13:05.879Z,100
2022-09-07T08:14:10.139Z,100
2022-09-07T08:15:17.088Z,100
2022-09-07T08:16:21.494Z,100
2022-09-07T08:17:25.953Z,100
2022-09-07T08:18:30.224Z,100
2022-09-07T08:19:34.485Z,100
2022-09-07T08:20:41.131Z,100
2022-09-07T08:21:45.438Z,100
2022-09-07T08:22:49.770Z,100
2022-09-07T08:23:54.065Z,100
2022-09-07T08:24:58.355Z,100
2022-09-07T08:26:05.106Z,100
2022-09-07T08:27:09.524Z,100
2022-09-07T08:28:13.786Z,100
2022-09-07T08:29:18.052Z,100
2022-09-07T08:30:22.322Z,100
2022-09-07T08:31:29.196Z,100
2022-09-07T08:32:33.733Z,100
2022-09-07T08:33:37.990Z,100
2022-09-07T08:34:42.287Z,100
2022-09-07T08:35:46.596Z,99.2
2022-09-07T08:36:53.110Z,96.9
2022-09-07T08:37:57.453Z,96.4
2022-09-07T08:39:01.734Z,97.5
2022-09-07T08:40:06.158Z,99.7
2022-09-07T08:41:10.662Z,97.7
2022-09-07T08:42:17.094Z,100
2022-09-07T08:43:21.358Z,100
2022-09-07T08:44:25.627Z,100
2022-09-07T08:45:29.898Z,100
2022-09-07T08:46:34.344Z,100
2022-09-07T08:47:41.106Z,100
2022-09-07T08:48:45.371Z,100
2022-09-07T08:49:49.672Z,99.8
2022-09-07T08:50:53.988Z,98.7
2022-09-07T08:51:58.306Z,98.5
2022-09-07T08:53:05.069Z,98.1
2022-09-07T08:54:09.300Z,97.3
2022-09-07T08:55:13.595Z,100
2022-09-07T08:56:17.878Z,100
2022-09-07T08:57:22.614Z,100
2022-09-07T08:58:50.379Z,100
2022-09-07T08:59:54.772Z,100
2022-09-07T09:01:32.750Z,100
2022-09-07T09:02:45.779Z,100
2022-09-07T09:05:15.142Z,100
2022-09-07T09:06:24.442Z,100
2022-09-07T09:07:29.245Z,100
2022-09-07T09:08:33.545Z,100
2022-09-07T09:09:37.808Z,100
2022-09-07T09:10:42.081Z,100
2022-09-07T09:11:49.088Z,100
2022-09-07T09:12:53.355Z,100
2022-09-07T09:13:57.561Z,100
2022-09-07T09:15:01.825Z,100
2022-09-07T09:16:06.212Z,100
2022-09-07T09:17:13.093Z,100
2022-09-07T09:18:17.373Z,100
2022-09-07T09:19:21.579Z,100
2022-09-07T09:20:25.877Z,100
2022-09-07T09:21:30.172Z,100
2022-09-07T09:22:37.104Z,100
2022-09-07T09:23:41.443Z,100
2022-09-07T09:24:45.638Z,100
2022-09-07T09:25:49.902Z,100
2022-09-07T09:26:54.223Z,100
2022-09-07T09:28:01.068Z,100
2022-09-07T09:29:05.310Z,100
2022-09-07T09:30:09.565Z,100
2022-09-07T09:31:13.907Z,100
2022-09-07T09:32:18.441Z,100
2022-09-07T09:33:25.089Z,100
2022-09-07T09:34:35.122Z,98.7
2022-09-07T09:35:39.431Z,96.6
2022-09-07T09:36:43.733Z,95.6
2022-09-07T09:37:48.043Z,95.9
2022-09-07T09:38:55.084Z,95.1
2022-09-07T09:40:03.912Z,95.1
2022-09-07T09:41:08.364Z,96.8
2022-09-07T09:42:12.666Z,95.6
2022-09-07T09:43:16.907Z,94.6
2022-09-07T09:44:24.110Z,92.7
2022-09-07T09:45:28.545Z,93.5
2022-09-07T09:47:43.738Z,92.7
2022-09-07T09:48:48.139Z,91.5
2022-09-07T09:49:52.378Z,93.1
2022-09-07T09:53:40.074Z,93
2022-09-07T09:54:44.430Z,94.5
2022-09-07T09:55:48.712Z,94.1
2022-09-07T09:56:52.979Z,91.9
2022-09-07T10:01:35.363Z,87.7
2022-09-07T10:04:56.352Z,89.4
2022-09-07T10:06:00.675Z,91.5
2022-09-07T10:07:04.972Z,92.5
2022-09-07T10:08:12.092Z,92.4
2022-09-07T10:09:16.418Z,91
2022-09-07T10:10:20.739Z,91.2
2022-09-07T10:12:07.215Z,90.2
2022-09-07T10:13:12.188Z,89
2022-09-07T10:14:19.089Z,88.6
2022-09-07T10:15:23.352Z,89.2
2022-09-07T10:16:27.755Z,90
2022-09-07T10:17:32.367Z,91.7
2022-09-07T10:18:36.626Z,91.5
2022-09-07T10:19:43.114Z,93
2022-09-07T10:20:47.403Z,94
2022-09-07T10:21:51.682Z,96.2
2022-09-07T10:22:55.959Z,99
2022-09-07T10:24:00.241Z,100
2022-09-07T10:25:07.129Z,100
2022-09-07T10:26:11.457Z,100
2022-09-07T10:27:15.721Z,100
2022-09-07T10:28:19.968Z,100
2022-09-07T10:29:24.580Z,100
2022-09-07T10:30:33.076Z,100
2022-09-07T10:31:37.474Z,100
2022-09-07T10:32:41.885Z,100
2022-09-07T10:34:27.104Z,100
2022-09-07T10:35:31.376Z,100
2022-09-07T10:36:38.080Z,100
2022-09-07T10:37:42.360Z,100
2022-09-07T10:38:46.618Z,100
2022-09-07T10:39:51.040Z,100
2022-09-07T10:41:02.692Z,100
2022-09-07T10:42:09.076Z,100
2022-09-07T10:43:28.741Z,100
2022-09-07T10:44:33.013Z,100
2022-09-07T10:45:37.309Z,100
2022-09-07T10:47:11.642Z,100
2022-09-07T10:48:21.110Z,100
2022-09-07T10:49:25.367Z,100
2022-09-07T10:50:29.620Z,100
2022-09-07T10:51:33.925Z,100
2022-09-07T10:52:38.184Z,100
2022-09-07T10:53:45.480Z,100
2022-09-07T10:55:31.715Z,100
2022-09-07T10:56:36.032Z,100
2022-09-07T10:57:40.386Z,100
2022-09-07T10:59:06.298Z,100
2022-09-07T11:00:13.387Z,100
2022-09-07T11:01:17.898Z,100
2022-09-07T11:02:22.399Z,100
2022-09-07T11:03:28.104Z,100
2022-09-07T11:04:32.822Z,100
2022-09-07T11:05:39.708Z,100
2022-09-07T11:06:43.960Z,100
2022-09-07T11:07:48.234Z,100
2022-09-07T11:09:22.495Z,100
2022-09-07T11:10:26.772Z,100
2022-09-07T11:12:04.174Z,100
2022-09-07T11:13:09.235Z,100
2022-09-07T11:14:14.946Z,100
2022-09-07T11:15:19.200Z,100
2022-09-07T11:16:53.130Z,100
2022-09-07T11:18:00.094Z,100
2022-09-07T11:19:35.563Z,100
2022-09-07T11:20:41.096Z,100
2022-09-07T11:22:00.697Z,100
2022-09-07T11:23:04.979Z,100
2022-09-07T11:24:12.077Z,100
2022-09-07T11:25:31.839Z,100
2022-09-07T11:26:36.213Z,100
2022-09-07T11:27:40.505Z,100
2022-09-07T11:28:45.418Z,100
2022-09-07T11:30:34.177Z,100
2022-09-07T11:31:39.358Z,100
2022-09-07T11:32:43.870Z,100
2022-09-07T11:34:25.313Z,100
2022-09-07T11:35:29.654Z,100
2022-09-07T11:36:36.096Z,98.4
2022-09-07T11:37:40.351Z,100
2022-09-07T11:38:44.638Z,100
2022-09-07T11:39:49.082Z,100
2022-09-07T11:40:53.564Z,100
2022-09-07T11:42:00.703Z,100
2022-09-07T11:43:46.461Z,100
2022-09-07T11:44:50.809Z,99.6
2022-09-07T11:45:55.461Z,97.6
2022-09-07T11:46:59.947Z,98.8
2022-09-07T11:48:07.089Z,99.1
2022-09-07T11:49:11.379Z,100
2022-09-07T11:50:15.638Z,100
2022-09-07T11:51:19.853Z,100
2022-09-07T11:52:24.070Z,100
2022-09-07T11:53:31.103Z,100
2022-09-07T11:54:35.376Z,100
2022-09-07T11:55:39.662Z,100
2022-09-07T11:56:46.930Z,100
2022-09-07T11:57:56.136Z,100
2022-09-07T11:59:03.147Z,100
2022-09-07T12:01:25.231Z,100
2022-09-07T12:02:59.666Z,100
2022-09-07T12:04:05.156Z,100
2022-09-07T12:05:13.059Z,100
2022-09-07T12:06:20.096Z,100
2022-09-07T12:07:24.486Z,100
2022-09-07T12:08:28.848Z,100
2022-09-07T12:09:33.484Z,100
2022-09-07T12:10:37.816Z,100
2022-09-07T12:11:45.095Z,100
2022-09-07T12:12:49.386Z,100
2022-09-07T12:13:53.728Z,100
2022-09-07T12:14:58.128Z,100
2022-09-07T12:16:02.681Z,100
2022-09-07T12:17:10.117Z,100
2022-09-07T12:18:14.449Z,100
2022-09-07T12:19:18.799Z,100
2022-09-07T12:20:23.147Z,100
2022-09-07T12:21:27.486Z,100
2022-09-07T12:22:34.082Z,100
2022-09-07T12:23:38.422Z,100
2022-09-07T12:24:42.783Z,99.6
2022-09-07T12:25:47.134Z,100
2022-09-07T12:26:51.486Z,100
2022-09-07T12:27:58.103Z,100
2022-09-07T12:29:02.458Z,100
2022-09-07T12:30:06.806Z,100
2022-09-07T12:31:11.377Z,100
2022-09-07T12:32:54.455Z,98.9
2022-09-07T12:34:04.108Z,98.1
2022-09-07T12:35:08.469Z,98.2
2022-09-07T12:36:12.793Z,98
2022-09-07T12:37:17.120Z,99
2022-09-07T12:38:21.471Z,99.2
2022-09-07T12:39:28.224Z,100
2022-09-07T12:40:32.731Z,98.5
2022-09-07T12:41:37.059Z,98.4
2022-09-07T12:42:41.420Z,99
2022-09-07T12:43:45.742Z,100
2022-09-07T12:44:52.262Z,100
2022-09-07T12:45:56.775Z,100
2022-09-07T12:47:01.310Z,100
2022-09-07T12:48:05.969Z,100
2022-09-07T12:49:10.289Z,100
2022-09-07T12:50:17.080Z,100
2022-09-07T12:52:05.157Z,100
2022-09-07T12:53:19.114Z,100
2022-09-07T12:54:23.464Z,100
2022-09-07T12:55:30.375Z,100
2022-09-07T12:56:38.057Z,100
2022-09-07T12:57:42.384Z,100
2022-09-07T12:58:46.785Z,100
2022-09-07T12:59:51.120Z,100
2022-09-07T13:00:55.441Z,100
2022-09-07T13:02:02.448Z,100
2022-09-07T13:03:07.551Z,100
2022-09-07T13:04:54.256Z,100
2022-09-07T13:05:58.605Z,100
2022-09-07T13:07:03.848Z,100
2022-09-07T13:08:11.078Z,100
2022-09-07T13:09:15.405Z,100
2022-09-07T13:10:19.732Z,100
2022-09-07T13:11:24.078Z,100
2022-09-07T13:12:58.399Z,100
2022-09-07T13:14:09.302Z,100
2022-09-07T13:15:25.075Z,100
2022-09-07T13:16:30.044Z,100
2022-09-07T13:18:18.141Z,100
2022-09-07T13:19:22.552Z,100
2022-09-07T13:20:30.074Z,100
2022-09-07T13:21:42.635Z,100
2022-09-07T13:22:47.020Z,100
2022-09-07T13:23:51.345Z,100
2022-09-07T13:24:56.374Z,100
2022-09-07T13:26:03.111Z,100
2022-09-07T13:27:07.540Z,100
2022-09-07T13:28:11.988Z,100
2022-09-07T13:29:16.405Z,100
2022-09-07T13:30:20.755Z,100
2022-09-07T13:31:27.324Z,100
2022-09-07T13:33:09.462Z,100
2022-09-07T13:34:13.840Z,100
2022-09-07T13:35:18.230Z,100
2022-09-07T13:36:22.596Z,100
2022-09-07T13:37:29.099Z,100
2022-09-07T13:38:33.445Z,100
2022-09-07T13:39:37.822Z,100
2022-09-07T13:40:42.334Z,100
2022-09-07T13:41:46.682Z,100
2022-09-07T13:42:53.108Z,100
2022-09-07T13:43:57.459Z,100
2022-09-07T13:45:01.780Z,100
2022-09-07T13:46:06.248Z,100
2022-09-07T13:47:10.836Z,100
2022-09-07T13:48:18.122Z,100
2022-09-07T13:49:22.473Z,100
2022-09-07T13:50:26.898Z,100
2022-09-07T13:51:31.246Z,99.1
2022-09-07T13:52:35.588Z,97.3
2022-09-07T13:53:42.118Z,97.2
2022-09-07T13:54:46.447Z,96.3
2022-09-07T13:55:50.877Z,95.8
2022-09-07T13:56:55.206Z,95.2
2022-09-07T13:57:59.547Z,94.4
2022-09-07T13:59:06.093Z,95.1
2022-09-07T14:00:10.434Z,94.3
2022-09-07T14:01:14.923Z,91.4
2022-09-07T14:02:19.595Z,89.5
2022-09-07T14:03:24.237Z,88.1
2022-09-07T14:04:31.116Z,86.1
2022-09-07T14:05:35.499Z,86.3
2022-09-07T14:06:39.919Z,86.2
2022-09-07T14:07:44.279Z,85
2022-09-07T14:08:48.636Z,84.9
2022-09-07T14:09:55.087Z,85.1
2022-09-07T14:10:59.420Z,83.8
2022-09-07T14:12:03.763Z,83.3
2022-09-07T14:13:08.130Z,85.1
2022-09-07T14:14:12.469Z,84
2022-09-07T14:15:19.089Z,83.3
2022-09-07T14:16:23.555Z,82.2
2022-09-07T14:17:28.007Z,83.1
2022-09-07T14:18:32.353Z,83.1
2022-09-07T14:19:36.716Z,83.5
2022-09-07T14:20:43.197Z,84.3
2022-09-07T14:21:47.574Z,83.4
2022-09-07T14:22:54.715Z,83.6
2022-09-07T14:23:59.054Z,84.3
2022-09-07T14:25:03.382Z,85.3
2022-09-07T14:26:18.890Z,86.9
2022-09-07T14:27:23.363Z,87
2022-09-07T14:28:27.718Z,86.9
2022-09-07T14:29:32.048Z,85.9
2022-09-07T14:30:36.561Z,86.8
2022-09-07T14:31:43.215Z,86.5
2022-09-07T14:32:47.822Z,87.8
2022-09-07T14:33:52.155Z,88.1
2022-09-07T14:34:56.521Z,90
2022-09-07T14:36:09.300Z,91.9
2022-09-07T14:37:50.307Z,91.5
2022-09-07T14:39:10.671Z,93.2
2022-09-07T14:40:15.131Z,93.3
2022-09-07T14:41:19.712Z,94.1
2022-09-07T14:42:24.323Z,91.8
2022-09-07T14:43:31.129Z,92.4
2022-09-07T14:44:36.021Z,91.8
2022-09-07T14:45:42.087Z,92.9
2022-09-07T14:46:46.652Z,92.4
2022-09-07T14:47:59.402Z,93.3
2022-09-07T14:49:07.797Z,92.9
2022-09-07T14:50:12.709Z,93.4
2022-09-07T14:51:36.995Z,92.8
2022-09-07T14:53:34.939Z,93.1
2022-09-07T14:54:39.754Z,95
2022-09-07T14:55:46.212Z,97.7
2022-09-07T14:56:50.563Z,97.4
2022-09-07T14:57:54.998Z,98.4
2022-09-07T14:58:59.683Z,98.3
2022-09-07T15:00:04.031Z,98.9
2022-09-07T15:01:40.865Z,98.3
2022-09-07T15:02:45.474Z,97.7
2022-09-07T15:03:50.001Z,97.2
2022-09-07T15:04:54.462Z,97.6
2022-09-07T15:06:02.372Z,98
2022-09-07T15:07:09.100Z,98.1
2022-09-07T15:08:13.439Z,97.1
2022-09-07T15:09:17.780Z,96.2
2022-09-07T15:10:23.121Z,93.7
2022-09-07T15:11:35.074Z,91.5
2022-09-07T15:12:42.086Z,90.7
2022-09-07T15:13:46.405Z,89.3
2022-09-07T15:14:50.740Z,87.9
2022-09-07T15:15:55.604Z,86.4
2022-09-07T15:17:45.492Z,84.6
2022-09-07T15:18:52.327Z,85.6
2022-09-07T15:19:56.724Z,85.1
2022-09-07T15:21:02.143Z,86.1
2022-09-07T15:22:06.545Z,85.9
2022-09-07T15:23:10.969Z,86.4
2022-09-07T15:24:18.096Z,85.1
2022-09-07T15:25:22.444Z,84.4
2022-09-07T15:27:04.137Z,85.7
2022-09-07T15:28:08.513Z,87.5
2022-09-07T15:29:13.869Z,87.6
2022-09-07T15:30:21.095Z,88.3
2022-09-07T15:31:48.092Z,86.8
2022-09-07T15:33:11.420Z,86.8
2022-09-07T15:34:17.121Z,85.2
2022-09-07T15:35:21.470Z,84
2022-09-07T15:36:28.746Z,86
2022-09-07T15:38:06.126Z,86.8
2022-09-07T15:40:05.793Z,85
2022-09-07T15:41:24.942Z,85.5
2022-09-07T15:43:03.088Z,85.3
2022-09-07T15:44:29.696Z,84.2
2022-09-07T15:45:34.222Z,84.6
2022-09-07T15:46:39.840Z,84
2022-09-07T15:47:53.483Z,84.8
2022-09-07T15:48:58.106Z,85.9
2022-09-07T15:50:07.100Z,86.8
2022-09-07T15:55:20.293Z,86.9
2022-09-07T15:56:24.693Z,86.5
2022-09-07T15:58:10.903Z,87.6
2022-09-07T15:59:15.814Z,88.5
2022-09-07T16:00:20.141Z,89.6
2022-09-07T16:01:54.883Z,90.4
2022-09-07T16:03:09.858Z,91.5
2022-09-07T16:04:17.413Z,91.7
2022-09-07T16:05:26.993Z,92.1
2022-09-07T16:06:37.110Z,94.1
2022-09-07T16:08:27.518Z,94.5
2022-09-07T16:09:39.107Z,95.8
2022-09-07T16:10:53.109Z,97.2
2022-09-07T16:14:19.455Z,98.3
2022-09-07T16:15:26.938Z,98.5
2022-09-07T16:18:52.204Z,97.8
2022-09-07T16:19:56.630Z,98.3
2022-09-07T16:21:05.206Z,99.6
2022-09-07T16:23:15.756Z,99.9
2022-09-07T16:24:20.871Z,99
2022-09-07T16:25:28.112Z,100
2022-09-07T16:26:32.499Z,100
2022-09-07T16:27:36.830Z,100
2022-09-07T16:28:41.351Z,100
2022-09-07T16:29:45.725Z,100
2022-09-07T16:30:53.080Z,100
2022-09-07T16:32:44.264Z,100
2022-09-07T16:33:49.274Z,100
2022-09-07T16:34:53.608Z,100
2022-09-07T16:36:00.466Z,100
2022-09-07T16:37:07.086Z,100
2022-09-07T16:38:45.158Z,100
2022-09-07T16:39:51.097Z,100
2022-09-07T16:40:55.797Z,100
2022-09-07T16:42:01.631Z,100
2022-09-07T16:43:08.080Z,100
2022-09-07T16:44:13.271Z,100
2022-09-07T16:46:03.210Z,100
2022-09-07T16:47:09.275Z,100
2022-09-07T16:48:13.891Z,100
2022-09-07T16:49:21.112Z,100
2022-09-07T16:50:25.440Z,100
2022-09-07T16:51:29.972Z,100
2022-09-07T16:52:35.695Z,100
2022-09-07T16:53:40.953Z,100
2022-09-07T16:54:48.120Z,100
2022-09-07T16:55:54.281Z,100
2022-09-07T16:56:58.627Z,100
2022-09-07T16:58:36.909Z,100
2022-09-07T16:59:41.739Z,100
2022-09-07T17:00:48.344Z,100
2022-09-07T17:01:52.869Z,100
2022-09-07T17:02:57.316Z,100
2022-09-07T17:04:04.430Z,100
2022-09-07T17:05:14.231Z,100
2022-09-07T17:06:21.115Z,100
2022-09-07T17:07:25.443Z,100
2022-09-07T17:08:29.907Z,100
2022-09-07T17:09:34.472Z,100
2022-09-07T17:10:38.790Z,100
2022-09-07T17:11:46.124Z,100
2022-09-07T17:12:50.484Z,100
2022-09-07T17:13:54.869Z,100
2022-09-07T17:14:59.194Z,100
2022-09-07T17:16:03.686Z,100
2022-09-07T17:17:11.098Z,100
2022-09-07T17:18:16.250Z,100
2022-09-07T17:20:30.563Z,100
2022-09-07T17:21:34.920Z,100
2022-09-07T17:22:39.247Z,100
2022-09-07T17:23:55.990Z,100
2022-09-07T17:25:00.416Z,100
2022-09-07T17:26:04.745Z,100
2022-09-07T17:27:09.123Z,100
2022-09-07T17:28:16.555Z,100
2022-09-07T17:29:23.087Z,100
2022-09-07T17:30:27.417Z,100
2022-09-07T17:33:36.257Z,100
2022-09-07T17:34:40.579Z,100
2022-09-07T17:35:47.102Z,100
2022-09-07T17:36:51.677Z,100
2022-09-07T17:37:56.821Z,100
2022-09-07T17:39:20.404Z,100
2022-09-07T17:40:25.684Z,100
2022-09-07T17:41:33.107Z,100
2022-09-07T17:45:05.675Z,100
2022-09-07T17:46:10.175Z,100
2022-09-07T17:47:14.747Z,100
2022-09-07T17:48:21.209Z,100
2022-09-07T17:49:25.552Z,100
2022-09-07T17:50:29.878Z,100
2022-09-07T17:51:34.950Z,100
2022-09-07T17:52:45.762Z,100
2022-09-07T17:54:00.137Z,100
2022-09-07T17:55:04.462Z,100
2022-09-07T17:56:08.810Z,100
2022-09-07T17:57:13.155Z,100
2022-09-07T17:58:17.465Z,100
2022-09-07T18:00:11.106Z,100
2022-09-07T18:01:16.453Z,100
2022-09-07T18:02:21.053Z,100
2022-09-07T18:03:25.367Z,100
2022-09-07T18:04:38.071Z,100
2022-09-07T18:05:45.076Z,100
2022-09-07T18:06:49.403Z,100
2022-09-07T18:07:53.737Z,100
2022-09-07T18:08:58.078Z,100
2022-09-07T18:10:02.423Z,100
2022-09-07T18:11:47.954Z,100
2022-09-07T18:12:53.530Z,100
2022-09-07T18:13:57.858Z,100
2022-09-07T18:15:02.184Z,100
2022-09-07T18:16:06.666Z,100
2022-09-07T18:17:14.097Z,100
2022-09-07T18:18:18.456Z,100
2022-09-07T18:19:22.780Z,100
2022-09-07T18:20:27.120Z,100
2022-09-07T18:21:31.807Z,100
2022-09-07T18:22:39.098Z,100
2022-09-07T18:23:43.434Z,100
2022-09-07T18:24:47.762Z,100
2022-09-07T18:25:52.088Z,100
2022-09-07T18:26:56.410Z,100
2022-09-07T18:30:29.388Z,100
2022-09-07T18:31:33.840Z,100
2022-09-07T18:32:38.617Z,100
2022-09-07T18:33:42.962Z,100
2022-09-07T18:34:52.007Z,100
2022-09-07T18:35:56.341Z,100
2022-09-07T18:37:01.393Z,100
2022-09-07T18:38:05.715Z,100
2022-09-07T18:39:10.038Z,100
2022-09-07T18:40:21.318Z,100
2022-09-07T18:41:26.222Z,100
2022-09-07T18:42:30.577Z,100
2022-09-07T18:43:35.077Z,100
2022-09-07T18:46:48.097Z,100
2022-09-07T18:47:52.491Z,100
2022-09-07T18:48:58.213Z,100
2022-09-07T18:50:02.982Z,100
2022-09-07T18:51:07.303Z,100
2022-09-07T18:52:53.129Z,100
2022-09-07T18:54:18.580Z,100
2022-09-07T18:55:23.898Z,100
2022-09-07T18:56:28.275Z,100
2022-09-07T18:57:32.610Z,100
2022-09-07T18:58:41.091Z,100
2022-09-07T18:59:45.434Z,100
2022-09-07T19:00:50.076Z,100
2022-09-07T19:02:03.143Z,100
2022-09-07T19:03:11.641Z,100
2022-09-07T19:04:18.104Z,100
2022-09-07T19:05:53.406Z,100
2022-09-07T19:06:57.729Z,100
2022-09-07T19:08:02.085Z,100
2022-09-07T19:09:06.802Z,100
2022-09-07T19:10:14.093Z,100
2022-09-07T19:11:18.451Z,100
2022-09-07T19:12:22.787Z,100
2022-09-07T19:13:27.164Z,100
2022-09-07T19:14:31.580Z,100
2022-09-07T19:15:39.022Z,100
2022-09-07T19:16:43.456Z,100
2022-09-07T19:17:48.021Z,100
2022-09-07T19:18:52.439Z,100
2022-09-07T19:19:56.811Z,100
2022-09-07T19:21:04.093Z,100
2022-09-07T19:22:08.424Z,100
2022-09-07T19:23:12.749Z,100
2022-09-07T19:24:17.084Z,100
2022-09-07T19:25:21.409Z,100
2022-09-07T19:26:28.076Z,100
2022-09-07T19:27:32.414Z,100
2022-09-07T19:28:36.777Z,100
2022-09-07T19:29:41.103Z,100
2022-09-07T19:30:45.418Z,100
2022-09-07T19:31:52.167Z,100
2022-09-07T19:32:59.625Z,100
2022-09-07T19:34:07.883Z,100
2022-09-07T19:35:12.238Z,100
2022-09-07T19:36:16.607Z,100
2022-09-07T19:37:23.083Z,100
2022-09-07T19:38:27.475Z,100
2022-09-07T19:39:32.047Z,100
2022-09-07T19:40:36.585Z,100
2022-09-07T19:41:40.925Z,100
2022-09-07T19:42:48.093Z,100
2022-09-07T19:43:52.487Z,100
2022-09-07T19:44:56.818Z,100
2022-09-07T19:46:01.159Z,100
2022-09-07T19:47:05.705Z,100
2022-09-07T19:48:13.085Z,100
2022-09-07T19:49:17.524Z,100
2022-09-07T19:50:21.879Z,100
2022-09-07T19:51:26.214Z,100
2022-09-07T19:52:30.530Z,100
2022-09-07T19:53:37.093Z,100
2022-09-07T19:54:41.433Z,100
2022-09-07T19:55:45.759Z,100
2022-09-07T19:56:50.091Z,100
2022-09-07T19:57:54.422Z,100
2022-09-07T19:59:01.103Z,100
2022-09-07T20:00:05.425Z,100
2022-09-07T20:01:09.886Z,100
2022-09-07T20:02:14.464Z,100
2022-09-07T20:03:18.781Z,100
2022-09-07T20:04:26.387Z,100
2022-09-07T20:05:30.877Z,100
2022-09-07T20:06:35.210Z,100
2022-09-07T20:07:39.533Z,100
2022-09-07T20:08:43.882Z,100
2022-09-07T20:09:51.093Z,100
2022-09-07T20:10:55.440Z,100
2022-09-07T20:11:59.780Z,100
2022-09-07T20:13:04.132Z,100
2022-09-07T20:14:08.447Z,100
2022-09-07T20:15:15.107Z,100
2022-09-07T20:16:19.590Z,100
2022-09-07T20:17:24.217Z,100
2022-09-07T20:18:28.553Z,100
2022-09-07T20:19:33.032Z,100
2022-09-07T20:20:40.150Z,100
2022-09-07T20:21:44.493Z,100
2022-09-07T20:22:48.838Z,100
2022-09-07T20:23:53.177Z,100
2022-09-07T20:24:57.535Z,100
2022-09-07T20:26:04.085Z,100
2022-09-07T20:27:08.433Z,100
2022-09-07T20:28:12.754Z,100
2022-09-07T20:29:29.377Z,100
2022-09-07T20:30:35.098Z,100
2022-09-07T20:31:42.301Z,100
2022-09-07T20:32:46.919Z,100
2022-09-07T20:33:51.245Z,100
2022-09-07T20:34:55.719Z,100
2022-09-07T20:36:00.086Z,100
2022-09-07T20:37:07.096Z,100
2022-09-07T20:38:11.409Z,100
2022-09-07T20:39:15.745Z,100
2022-09-07T20:40:20.280Z,100
2022-09-07T20:41:24.845Z,100
2022-09-07T20:42:32.110Z,100
2022-09-07T20:43:36.437Z,100
2022-09-07T20:44:40.786Z,100
2022-09-07T20:45:45.116Z,100
2022-09-07T20:46:49.564Z,100
2022-09-07T20:47:57.110Z,100
2022-09-07T20:49:01.430Z,100
2022-09-07T20:50:05.889Z,100
2022-09-07T20:51:10.239Z,100
2022-09-07T20:52:14.554Z,100
2022-09-07T20:53:21.027Z,100
2022-09-07T20:54:25.394Z,100
2022-09-07T20:55:29.755Z,100
2022-09-07T20:56:34.097Z,100
2022-09-07T20:57:38.423Z,100
2022-09-07T20:58:45.093Z,100
2022-09-07T20:59:49.425Z,100
2022-09-07T21:00:53.875Z,100
2022-09-07T21:01:58.518Z,100
2022-09-07T21:03:03.069Z,100
2022-09-07T21:04:10.094Z,100
2022-09-07T21:05:14.498Z,100
2022-09-07T21:06:18.875Z,100
2022-09-07T21:07:23.220Z,100
2022-09-07T21:08:27.548Z,100
2022-09-07T21:09:34.089Z,100
2022-09-07T21:10:38.417Z,100
2022-09-07T21:11:49.356Z,100
2022-09-07T21:12:59.535Z,100
2022-09-07T21:14:03.859Z,100
2022-09-07T21:15:11.078Z,100
2022-09-07T21:16:15.573Z,100
2022-09-07T21:17:20.147Z,100
2022-09-07T21:18:24.492Z,100
2022-09-07T21:19:28.826Z,100
2022-09-07T21:20:36.148Z,100
2022-09-07T21:21:40.771Z,100
2022-09-07T21:22:45.106Z,100
2022-09-07T21:23:49.429Z,100
2022-09-07T21:24:53.756Z,100
2022-09-07T21:26:00.213Z,100
2022-09-07T21:27:04.551Z,100
2022-09-07T21:28:08.859Z,100
2022-09-07T21:29:13.202Z,100
2022-09-07T21:30:17.519Z,100
2022-09-07T21:31:24.243Z,100
2022-09-07T21:32:28.998Z,100
2022-09-07T21:33:33.398Z,100
2022-09-07T21:34:37.985Z,100
2022-09-07T21:35:42.382Z,100
2022-09-07T21:36:49.114Z,100
2022-09-07T21:37:53.459Z,100
2022-09-07T21:38:57.796Z,100
2022-09-07T21:40:02.263Z,100
2022-09-07T21:41:06.796Z,100
2022-09-07T21:42:14.104Z,100
2022-09-07T21:43:18.437Z,100
2022-09-07T21:44:22.788Z,100
2022-09-07T21:45:27.118Z,100
2022-09-07T21:46:31.601Z,100
2022-09-07T21:47:38.201Z,100
2022-09-07T21:48:42.546Z,100
2022-09-07T21:49:46.902Z,100
2022-09-07T21:50:51.296Z,100
2022-09-07T21:51:55.686Z,100
2022-09-07T21:53:02.203Z,100
2022-09-07T21:54:06.539Z,100
2022-09-07T21:55:10.893Z,100
2022-09-07T21:56:15.254Z,100
2022-09-07T21:57:19.589Z,100
2022-09-07T21:58:26.085Z,100
2022-09-07T21:59:30.431Z,100
2022-09-07T22:00:34.865Z,100
2022-09-07T22:01:39.401Z,100
2022-09-07T22:02:43.959Z,100
2022-09-07T22:03:51.115Z,100
2022-09-07T22:04:55.440Z,100
2022-09-07T22:05:59.879Z,100
2022-09-07T22:07:04.241Z,100
2022-09-07T22:08:08.560Z,100
2022-09-07T22:09:15.107Z,100
2022-09-07T22:10:19.416Z,100
2022-09-07T22:11:23.789Z,100
2022-09-07T22:12:28.116Z,100
2022-09-07T22:13:32.576Z,100
2022-09-07T22:14:40.100Z,100
2022-09-07T22:15:44.583Z,100
2022-09-07T22:16:49.099Z,100
2022-09-07T22:17:53.422Z,100
2022-09-07T22:18:57.755Z,100
2022-09-07T22:20:04.205Z,100
2022-09-07T22:21:08.628Z,100
2022-09-07T22:22:12.981Z,100
2022-09-07T22:23:17.345Z,100
2022-09-07T22:24:21.735Z,100
2022-09-07T22:25:28.195Z,100
2022-09-07T22:26:32.525Z,100
2022-09-07T22:27:36.845Z,100
2022-09-07T22:28:41.197Z,100
2022-09-07T22:29:45.534Z,100
2022-09-07T22:30:52.095Z,100
2022-09-07T22:31:56.642Z,100
2022-09-07T22:33:01.140Z,100
2022-09-07T22:34:05.488Z,100
2022-09-07T22:35:09.849Z,100
2022-09-07T22:36:17.118Z,100
2022-09-07T22:37:21.536Z,100
2022-09-07T22:38:25.863Z,100
2022-09-07T22:39:30.297Z,100
2022-09-07T22:40:34.714Z,100
2022-09-07T22:41:41.202Z,100
2022-09-07T22:42:45.549Z,100
2022-09-07T22:43:49.876Z,100
2022-09-07T22:44:54.370Z,100
2022-09-07T22:45:58.702Z,100
2022-09-07T22:47:05.203Z,100
2022-09-07T22:48:09.530Z,100
2022-09-07T22:49:13.872Z,100
2022-09-07T22:50:18.236Z,100
2022-09-07T22:51:22.616Z,100
2022-09-07T22:52:29.109Z,100
2022-09-07T22:53:33.555Z,100
2022-09-07T22:54:38.257Z,100
2022-09-07T22:55:42.569Z,100
2022-09-07T22:56:46.924Z,100
2022-09-07T22:57:54.093Z,100
2022-09-07T22:58:58.405Z,100
2022-09-07T23:00:02.738Z,100
2022-09-07T23:01:07.094Z,100
2022-09-07T23:02:11.438Z,100
2022-09-07T23:03:18.215Z,100
2022-09-07T23:04:22.888Z,100
2022-09-07T23:05:33.700Z,100
2022-09-07T23:06:38.155Z,100
2022-09-07T23:07:42.501Z,100
2022-09-07T23:08:49.084Z,100
2022-09-07T23:09:53.423Z,100
2022-09-07T23:10:57.835Z,100
2022-09-07T23:12:02.194Z,100
2022-09-07T23:13:06.515Z,100
2022-09-07T23:14:13.102Z,100
2022-09-07T23:15:17.460Z,100
2022-09-07T23:16:22.079Z,100
2022-09-07T23:17:26.633Z,100
2022-09-07T23:18:30.958Z,100
2022-09-07T23:19:38.106Z,100
2022-09-07T23:20:42.456Z,100
2022-09-07T23:21:46.866Z,100
2022-09-07T23:22:51.249Z,100
2022-09-07T23:23:55.580Z,100